JST126 YSSY-YSCB
Flight info
| Callsign | JST126 |
|---|---|
| Flight time | 0h 37m |
| Altitude | 20000 |
| Route | WOL H65 LEECE |
| Aircraft | A320/M-SDE3FGHIRWY/LB1 |
Departure
| Time | 2026-05-04 10:02 |
|---|---|
| Airport | Sydney Kingsford Smith International Airport (YSSY) |
Arrival
| Time | 2026-05-04 10:39 |
|---|---|
| Airport | Canberra Airport (YSCB) |
| Time | Latitude | Longitude | Altitude | Speed | Heading |
|---|---|---|---|---|---|
| 2026-05-04 09:10 | -33.93524 | 151.17764 | 30 ft | 0 kts | 279° |
| 2026-05-04 09:44 | -33.93525 | 151.17777 | 30 ft | 4 kts | 275° |
| 2026-05-04 09:44 | -33.93525 | 151.17808 | 30 ft | 4 kts | 255° |
| 2026-05-04 09:46 | -33.93504 | 151.17841 | 30 ft | 0 kts | 190° |
| 2026-05-04 09:49 | -33.94050 | 151.17817 | 29 ft | 21 kts | 168° |
| 2026-05-04 09:49 | -33.94196 | 151.17857 | 30 ft | 22 kts | 168° |
| 2026-05-04 09:49 | -33.94351 | 151.17896 | 30 ft | 24 kts | 167° |
| 2026-05-04 09:51 | -33.95089 | 151.18164 | 30 ft | 17 kts | 77° |
| 2026-05-04 09:51 | -33.95064 | 151.18302 | 30 ft | 9 kts | 78° |
| 2026-05-04 09:51 | -33.95049 | 151.18384 | 30 ft | 9 kts | 78° |
| 2026-05-04 09:51 | -33.95045 | 151.18408 | 30 ft | 0 kts | 78° |
| 2026-05-04 09:54 | -33.95042 | 151.18467 | 30 ft | 15 kts | 105° |
| 2026-05-04 09:54 | -33.95148 | 151.18577 | 30 ft | 23 kts | 138° |
| 2026-05-04 09:54 | -33.95278 | 151.18700 | 30 ft | 25 kts | 154° |
| 2026-05-04 09:55 | -33.95450 | 151.18754 | 30 ft | 27 kts | 167° |
| 2026-05-04 09:55 | -33.95635 | 151.18802 | 30 ft | 28 kts | 167° |
| 2026-05-04 09:55 | -33.95822 | 151.18850 | 30 ft | 27 kts | 168° |
| 2026-05-04 09:55 | -33.96010 | 151.18900 | 30 ft | 27 kts | 167° |
| 2026-05-04 09:56 | -33.96186 | 151.18945 | 30 ft | 27 kts | 168° |
| 2026-05-04 09:56 | -33.96373 | 151.18994 | 30 ft | 27 kts | 167° |
| 2026-05-04 09:56 | -33.96530 | 151.19035 | 30 ft | 24 kts | 167° |
| 2026-05-04 09:56 | -33.96701 | 151.19076 | 30 ft | 26 kts | 176° |
| 2026-05-04 09:57 | -33.96881 | 151.19081 | 30 ft | 27 kts | 167° |
| 2026-05-04 09:57 | -33.97059 | 151.19126 | 30 ft | 22 kts | 168° |
| 2026-05-04 09:57 | -33.97123 | 151.19217 | 30 ft | 14 kts | 77° |
| 2026-05-04 09:57 | -33.97115 | 151.19256 | 29 ft | 0 kts | 77° |
| 2026-05-04 10:00 | -33.97046 | 151.19370 | 25 ft | 0 kts | 346° |
| 2026-05-04 10:02 | -33.93219 | 151.18832 | 1430 ft | 150 kts | 19° |
| 2026-05-04 10:04 | -33.93757 | 151.27741 | 4835 ft | 205 kts | 83° |
| 2026-05-04 10:04 | -33.93733 | 151.29468 | 4979 ft | 206 kts | 81° |
| 2026-05-04 10:04 | -33.93684 | 151.31195 | 5012 ft | 210 kts | 80° |
| 2026-05-04 10:04 | -33.93614 | 151.33077 | 5017 ft | 236 kts | 81° |
| 2026-05-04 10:05 | -33.93538 | 151.35139 | 5163 ft | 261 kts | 81° |
| 2026-05-04 10:05 | -33.93457 | 151.37429 | 5619 ft | 281 kts | 83° |
| 2026-05-04 10:05 | -33.93385 | 151.39812 | 6371 ft | 289 kts | 83° |
| 2026-05-04 10:05 | -33.93320 | 151.42262 | 7127 ft | 296 kts | 83° |
| 2026-05-04 10:06 | -33.93255 | 151.44752 | 7935 ft | 300 kts | 83° |
| 2026-05-04 10:06 | -33.93183 | 151.47272 | 8767 ft | 303 kts | 83° |
| 2026-05-04 10:06 | -33.93161 | 151.48965 | 9314 ft | 307 kts | 89° |
| 2026-05-04 10:08 | -34.03653 | 151.57069 | 12468 ft | 364 kts | 207° |
| 2026-05-04 10:08 | -34.05777 | 151.55476 | 13115 ft | 357 kts | 227° |
| 2026-05-04 10:08 | -34.07407 | 151.53254 | 13769 ft | 355 kts | 237° |
| 2026-05-04 10:08 | -34.08953 | 151.50903 | 14366 ft | 358 kts | 237° |
| 2026-05-04 10:09 | -34.10499 | 151.48536 | 14963 ft | 361 kts | 237° |
| 2026-05-04 10:09 | -34.12055 | 151.46152 | 15555 ft | 363 kts | 237° |
| 2026-05-04 10:09 | -34.13635 | 151.43740 | 16153 ft | 366 kts | 237° |
| 2026-05-04 10:09 | -34.15203 | 151.41353 | 16712 ft | 369 kts | 237° |
| 2026-05-04 10:10 | -34.16806 | 151.38916 | 17315 ft | 372 kts | 237° |
| 2026-05-04 10:10 | -34.18441 | 151.36427 | 17924 ft | 375 kts | 237° |
| 2026-05-04 10:10 | -34.20044 | 151.33983 | 18478 ft | 378 kts | 237° |
| 2026-05-04 10:10 | -34.21679 | 151.31483 | 19048 ft | 379 kts | 237° |
| 2026-05-04 10:11 | -34.23324 | 151.28972 | 19626 ft | 381 kts | 237° |
| 2026-05-04 10:11 | -34.24973 | 151.26462 | 19932 ft | 382 kts | 237° |
| 2026-05-04 10:11 | -34.26625 | 151.23948 | 20011 ft | 379 kts | 237° |
| 2026-05-04 10:11 | -34.28260 | 151.21456 | 20028 ft | 378 kts | 238° |
| 2026-05-04 10:12 | -34.29886 | 151.18971 | 20029 ft | 377 kts | 238° |
| 2026-05-04 10:12 | -34.31511 | 151.16482 | 20033 ft | 377 kts | 238° |
| 2026-05-04 10:12 | -34.33135 | 151.13992 | 20033 ft | 377 kts | 238° |
| 2026-05-04 10:12 | -34.34759 | 151.11504 | 20036 ft | 377 kts | 238° |
| 2026-05-04 10:13 | -34.36383 | 151.09016 | 20042 ft | 377 kts | 238° |
| 2026-05-04 10:13 | -34.38014 | 151.06517 | 20027 ft | 377 kts | 238° |
| 2026-05-04 10:13 | -34.39639 | 151.04020 | 20043 ft | 377 kts | 238° |
| 2026-05-04 10:13 | -34.41263 | 151.01525 | 20035 ft | 378 kts | 238° |
| 2026-05-04 10:14 | -34.42867 | 150.99056 | 20035 ft | 378 kts | 238° |
| 2026-05-04 10:14 | -34.44493 | 150.96552 | 20055 ft | 378 kts | 238° |
| 2026-05-04 10:16 | -34.55876 | 150.78968 | 20057 ft | 379 kts | 239° |
| 2026-05-04 10:16 | -34.57473 | 150.76429 | 20055 ft | 378 kts | 240° |
| 2026-05-04 10:16 | -34.59028 | 150.73865 | 20065 ft | 377 kts | 241° |
| 2026-05-04 10:16 | -34.60569 | 150.71287 | 20066 ft | 377 kts | 241° |
| 2026-05-04 10:17 | -34.62103 | 150.68709 | 20064 ft | 377 kts | 241° |
| 2026-05-04 10:17 | -34.63637 | 150.66134 | 20059 ft | 376 kts | 241° |
| 2026-05-04 10:19 | -34.74423 | 150.48162 | 20063 ft | 376 kts | 241° |
| 2026-05-04 10:19 | -34.75966 | 150.45593 | 20081 ft | 377 kts | 241° |
| 2026-05-04 10:19 | -34.77511 | 150.43013 | 20074 ft | 377 kts | 241° |
| 2026-05-04 10:19 | -34.79052 | 150.40435 | 20074 ft | 377 kts | 241° |
| 2026-05-04 10:20 | -34.80592 | 150.37857 | 20082 ft | 376 kts | 241° |
| 2026-05-04 10:20 | -34.82131 | 150.35276 | 20085 ft | 377 kts | 241° |
| 2026-05-04 10:20 | -34.83668 | 150.32695 | 20084 ft | 376 kts | 242° |
| 2026-05-04 10:20 | -34.85204 | 150.30117 | 20077 ft | 376 kts | 241° |
| 2026-05-04 10:21 | -34.86739 | 150.27538 | 20088 ft | 376 kts | 241° |
| 2026-05-04 10:21 | -34.88280 | 150.24948 | 20081 ft | 376 kts | 241° |
| 2026-05-04 10:21 | -34.89812 | 150.22374 | 20071 ft | 375 kts | 241° |
| 2026-05-04 10:21 | -34.91328 | 150.19823 | 20076 ft | 376 kts | 241° |
| 2026-05-04 10:22 | -34.94395 | 150.14663 | 20094 ft | 375 kts | 242° |
| 2026-05-04 10:22 | -34.95925 | 150.12087 | 20091 ft | 376 kts | 242° |
| 2026-05-04 10:22 | -34.97456 | 150.09507 | 20103 ft | 376 kts | 242° |
| 2026-05-04 10:23 | -34.98988 | 150.06926 | 20098 ft | 376 kts | 242° |
| 2026-05-04 10:23 | -35.00521 | 150.04339 | 20096 ft | 376 kts | 242° |
| 2026-05-04 10:25 | -35.12362 | 149.87081 | 19704 ft | 382 kts | 234° |
| 2026-05-04 10:25 | -35.14192 | 149.84722 | 19181 ft | 381 kts | 234° |
| 2026-05-04 10:25 | -35.16010 | 149.82381 | 18709 ft | 378 kts | 234° |
| 2026-05-04 10:25 | -35.17814 | 149.80059 | 18230 ft | 373 kts | 234° |
| 2026-05-04 10:26 | -35.19566 | 149.77810 | 17720 ft | 358 kts | 234° |
| 2026-05-04 10:26 | -35.21247 | 149.75657 | 17275 ft | 343 kts | 234° |
| 2026-05-04 10:26 | -35.22861 | 149.73580 | 16837 ft | 330 kts | 234° |
| 2026-05-04 10:26 | -35.24429 | 149.71548 | 16427 ft | 328 kts | 235° |
| 2026-05-04 10:27 | -35.25989 | 149.69510 | 16007 ft | 328 kts | 235° |
| 2026-05-04 10:27 | -35.27546 | 149.67469 | 15587 ft | 327 kts | 235° |
| 2026-05-04 10:27 | -35.29102 | 149.65433 | 15173 ft | 328 kts | 234° |
| 2026-05-04 10:27 | -35.30660 | 149.63397 | 14750 ft | 328 kts | 234° |
| 2026-05-04 10:28 | -35.32224 | 149.61357 | 14328 ft | 329 kts | 234° |
| 2026-05-04 10:28 | -35.33792 | 149.59319 | 13931 ft | 329 kts | 234° |
| 2026-05-04 10:28 | -35.35363 | 149.57277 | 13465 ft | 329 kts | 234° |
| 2026-05-04 10:28 | -35.36913 | 149.55262 | 13055 ft | 328 kts | 234° |
| 2026-05-04 10:29 | -35.38478 | 149.53227 | 12637 ft | 328 kts | 235° |
| 2026-05-04 10:29 | -35.40042 | 149.51191 | 12226 ft | 327 kts | 235° |
| 2026-05-04 10:29 | -35.41599 | 149.49164 | 11812 ft | 325 kts | 235° |
| 2026-05-04 10:29 | -35.43137 | 149.47157 | 11401 ft | 323 kts | 235° |
| 2026-05-04 10:30 | -35.44674 | 149.45146 | 10999 ft | 322 kts | 236° |
| 2026-05-04 10:30 | -35.46202 | 149.43146 | 10609 ft | 322 kts | 236° |
| 2026-05-04 10:30 | -35.47732 | 149.41140 | 10236 ft | 320 kts | 236° |
| 2026-05-04 10:30 | -35.49227 | 149.39189 | 10111 ft | 309 kts | 236° |
| 2026-05-04 10:31 | -35.50681 | 149.37299 | 9992 ft | 300 kts | 237° |
| 2026-05-04 10:31 | -35.52102 | 149.35453 | 9683 ft | 294 kts | 237° |
| 2026-05-04 10:32 | -35.56111 | 149.23462 | 6967 ft | 217 kts | 275° |
| 2026-05-04 10:33 | -35.55812 | 149.21794 | 6869 ft | 195 kts | 299° |
| 2026-05-04 10:33 | -35.54957 | 149.20533 | 6632 ft | 194 kts | 321° |
| 2026-05-04 10:33 | -35.53753 | 149.19811 | 6316 ft | 191 kts | 332° |
| 2026-05-04 10:33 | -35.52466 | 149.19444 | 6032 ft | 195 kts | 349° |
| 2026-05-04 10:34 | -35.51099 | 149.19448 | 5770 ft | 196 kts | 352° |
| 2026-05-04 10:34 | -35.49773 | 149.19453 | 5532 ft | 184 kts | 353° |
| 2026-05-04 10:34 | -35.48522 | 149.19452 | 5297 ft | 177 kts | 352° |
| 2026-05-04 10:34 | -35.47310 | 149.19450 | 5062 ft | 170 kts | 352° |
| 2026-05-04 10:35 | -35.46167 | 149.19450 | 4850 ft | 159 kts | 353° |
| 2026-05-04 10:35 | -35.45075 | 149.19450 | 4660 ft | 152 kts | 352° |
| 2026-05-04 10:35 | -35.44045 | 149.19449 | 4443 ft | 146 kts | 353° |
| 2026-05-04 10:35 | -35.43037 | 149.19448 | 4248 ft | 143 kts | 354° |
| 2026-05-04 10:36 | -35.42038 | 149.19447 | 4050 ft | 143 kts | 354° |
| 2026-05-04 10:36 | -35.41042 | 149.19446 | 3873 ft | 143 kts | 355° |
| 2026-05-04 10:36 | -35.40060 | 149.19446 | 3652 ft | 140 kts | 357° |
| 2026-05-04 10:36 | -35.39086 | 149.19446 | 3457 ft | 139 kts | 356° |
| 2026-05-04 10:37 | -35.38121 | 149.19445 | 3247 ft | 140 kts | 358° |
| 2026-05-04 10:37 | -35.37153 | 149.19445 | 3076 ft | 139 kts | 357° |
| 2026-05-04 10:37 | -35.36180 | 149.19445 | 2865 ft | 138 kts | 356° |
| 2026-05-04 10:37 | -35.35226 | 149.19445 | 2667 ft | 138 kts | 359° |
| 2026-05-04 10:39 | -35.30054 | 149.19444 | 1877 ft | 50 kts | 360° |
| 2026-05-04 10:39 | -35.29743 | 149.19445 | 1879 ft | 42 kts | 0° |
| 2026-05-04 10:39 | -35.29623 | 149.19432 | 1882 ft | 4 kts | 336° |
| 2026-05-04 10:40 | -35.29600 | 149.19402 | 1882 ft | 6 kts | 306° |
| 2026-05-04 10:40 | -35.29581 | 149.19359 | 1884 ft | 5 kts | 284° |
| 2026-05-04 10:40 | -35.29582 | 149.19300 | 1884 ft | 9 kts | 268° |
| 2026-05-04 10:40 | -35.29626 | 149.19237 | 1881 ft | 13 kts | 180° |
| 2026-05-04 10:41 | -35.29733 | 149.19237 | 1876 ft | 17 kts | 180° |
| 2026-05-04 10:41 | -35.29883 | 149.19238 | 1877 ft | 25 kts | 180° |
| 2026-05-04 10:41 | -35.30068 | 149.19239 | 1876 ft | 28 kts | 179° |
| 2026-05-04 10:41 | -35.30266 | 149.19239 | 1878 ft | 29 kts | 181° |
| 2026-05-04 10:42 | -35.30461 | 149.19239 | 1882 ft | 26 kts | 180° |
| 2026-05-04 10:42 | -35.30630 | 149.19235 | 1884 ft | 21 kts | 178° |
| 2026-05-04 10:42 | -35.30774 | 149.19239 | 1884 ft | 19 kts | 180° |
| 2026-05-04 10:42 | -35.30910 | 149.19238 | 1882 ft | 14 kts | 178° |
| 2026-05-04 10:43 | -35.30931 | 149.19188 | 1878 ft | 7 kts | 297° |
| 2026-05-04 10:44 | -35.30886 | 149.19118 | 1878 ft | 0 kts | 306° |